Time;durP1;ratioP1;P1;durP2;ratioP2;P2;SDS_P1;SDS_P2;PMS_P1;PMS_P2;Temp;Humidity;BMP_temperature;BMP_pressure;BME280_temperature;BME280_humidity;BME280_pressure;Samples;Min_cycle;Max_cycle;Signal;HPM_P1;HPM_P2
2022/03/15 00:00:54;;;;;;;;;8.33;6.33;;;;;12.07;53.53;101852.84;5006135;28;45317;-69
2022/03/15 00:03:20;;;;;;;;;8.50;4.00;;;;;12.04;53.84;101839.66;5005612;28;45829;-63
2022/03/15 00:05:45;;;;;;;;;16.25;11.00;;;;;12.04;53.99;101844.13;5012527;28;45651;-67
2022/03/15 00:08:12;;;;;;;;;8.25;7.50;;;;;11.97;54.39;101824.84;5001391;28;45440;-62
2022/03/15 00:10:38;;;;;;;;;8.50;6.00;;;;;11.83;54.30;101816.56;4991647;28;44898;-66
2022/03/15 00:13:06;;;;;;;;;9.25;6.75;;;;;11.89;54.03;101818.13;4990411;28;45557;-67
2022/03/15 00:15:32;;;;;;;;;4.00;4.00;;;;;11.94;54.69;101830.31;5008449;28;46450;-68
2022/03/15 00:17:58;;;;;;;;;6.00;6.00;;;;;11.76;54.54;101799.06;4987912;28;45575;-71
2022/03/15 00:20:24;;;;;;;;;7.00;7.00;;;;;11.91;54.73;101826.91;5006574;28;45871;-74
2022/03/15 00:22:51;;;;;;;;;7.75;7.75;;;;;11.87;54.63;101818.19;4997652;28;45465;-72
2022/03/15 00:25:18;;;;;;;;;7.00;7.00;;;;;11.92;54.65;101825.97;4987838;28;46458;-72
2022/03/15 00:27:45;;;;;;;;;7.33;6.33;;;;;11.89;54.58;101819.00;4972658;28;45329;-69
2022/03/15 00:30:12;;;;;;;;;6.67;5.33;;;;;11.89;54.59;101820.78;5002004;28;45440;-70
2022/03/15 00:32:37;;;;;;;;;8.75;7.00;;;;;11.85;54.74;101819.16;5001854;28;45619;-68
2022/03/15 00:35:11;;;;;;;;;6.67;6.00;;;;;11.80;54.76;101812.22;5005118;28;46286;-68
2022/03/15 00:37:37;;;;;;;;;10.00;7.00;;;;;11.82;54.97;101823.69;4995659;28;45533;-67
2022/03/15 00:40:04;;;;;;;;;11.00;7.25;;;;;11.72;54.89;101806.34;4988146;28;45262;-64
2022/03/15 00:42:30;;;;;;;;;6.00;6.00;;;;;11.67;55.32;101805.66;5011525;28;45667;-67
2022/03/15 00:44:55;;;;;;;;;5.75;4.00;;;;;11.70;54.86;101816.16;5006938;28;46737;-65
2022/03/15 00:47:21;;;;;;;;;12.50;7.25;;;;;11.71;55.00;101809.91;5006314;28;44718;-68
2022/03/15 00:49:46;;;;;;;;;8.50;4.00;;;;;11.70;54.78;101800.19;5017492;28;45460;-75
2022/03/15 00:52:12;;;;;;;;;7.33;7.00;;;;;11.60;54.74;101788.19;5019649;28;45180;-64
2022/03/15 00:54:37;;;;;;;;;6.00;6.00;;;;;11.61;54.77;101789.91;4999148;28;45312;-71
2022/03/15 00:57:03;;;;;;;;;11.50;6.50;;;;;11.75;54.97;101814.19;5000268;28;45369;-72
2022/03/15 00:59:28;;;;;;;;;9.50;6.50;;;;;11.65;54.87;101791.53;5001126;28;45256;-73
2022/03/15 01:01:56;;;;;;;;;8.33;7.00;;;;;11.73;55.17;101800.06;4999391;28;45431;-63
2022/03/15 01:04:21;;;;;;;;;7.00;7.00;;;;;11.71;55.39;101796.56;5001838;28;45983;-60
2022/03/15 01:06:47;;;;;;;;;6.50;6.25;;;;;11.70;54.90;101797.50;5006603;28;45411;-64
2022/03/15 01:09:12;;;;;;;;;6.00;6.00;;;;;11.69;55.29;101787.78;4999643;28;45336;-65
2022/03/15 01:11:38;;;;;;;;;7.00;7.00;;;;;11.73;55.09;101792.09;5013212;28;45580;-70
2022/03/15 01:14:04;;;;;;;;;7.00;4.00;;;;;11.68;54.87;101780.72;5004420;28;45471;-71
2022/03/15 01:16:29;;;;;;;;;7.00;7.00;;;;;11.68;55.02;101772.72;4992281;28;45442;-68
2022/03/15 01:18:55;;;;;;;;;7.75;6.00;;;;;11.77;54.87;101779.47;5010218;28;45191;-66
2022/03/15 01:21:21;;;;;;;;;6.50;6.50;;;;;11.83;55.23;101789.91;5009968;28;45518;-73
2022/03/15 01:23:46;;;;;;;;;4.00;4.00;;;;;11.84;54.45;101785.44;5003975;28;45532;-70
2022/03/15 01:26:14;;;;;;;;;3.75;3.75;;;;;11.75;54.47;101774.22;5002360;28;45434;-70
2022/03/15 01:28:40;;;;;;;;;8.00;6.00;;;;;11.69;54.87;101763.81;5004543;28;45401;-63
2022/03/15 01:31:06;;;;;;;;;6.67;6.67;;;;;11.71;54.71;101769.94;5005239;28;45345;-65
2022/03/15 01:33:31;;;;;;;;;8.33;4.00;;;;;11.76;55.16;101775.09;5005094;28;46124;-70
2022/03/15 01:35:57;;;;;;;;;4.67;4.67;;;;;11.73;55.38;101759.22;5003584;28;45518;-72
2022/03/15 01:38:22;;;;;;;;;4.00;4.00;;;;;11.77;55.13;101764.34;5004002;28;45361;-68
2022/03/15 01:40:47;;;;;;;;;5.00;5.00;;;;;11.82;54.97;101773.03;5005000;28;45487;-72
2022/03/15 01:43:13;;;;;;;;;11.00;6.00;;;;;11.77;55.37;101764.34;5010612;28;45477;-72
2022/03/15 01:45:40;;;;;;;;;6.25;4.00;;;;;11.79;55.66;101762.53;5014426;28;44842;-60
2022/03/15 01:48:08;;;;;;;;;7.75;6.00;;;;;11.78;55.61;101755.44;5011345;28;45410;-60
2022/03/15 01:50:34;;;;;;;;;6.00;4.00;;;;;11.71;55.93;101743.28;5006070;28;45174;-72
2022/03/15 01:53:00;;;;;;;;;7.00;6.00;;;;;11.67;55.99;101740.81;5010969;28;46421;-64
2022/03/15 01:55:26;;;;;;;;;6.00;4.00;;;;;11.70;56.13;101746.00;5003073;28;44800;-62
2022/03/15 01:57:52;;;;;;;;;6.75;4.50;;;;;11.72;56.33;101742.38;4996902;28;45741;-72
2022/03/15 02:00:18;;;;;;;;;6.75;6.75;;;;;11.71;56.63;101727.28;4994454;28;45565;-72
2022/03/15 02:02:45;;;;;;;;;6.50;4.00;;;;;11.79;56.31;101730.53;5008082;28;45483;-63
2022/03/15 02:05:11;;;;;;;;;6.50;6.00;;;;;11.74;56.68;101721.84;5005537;28;45289;-73
2022/03/15 02:07:37;;;;;;;;;6.75;5.00;;;;;11.63;56.92;101699.25;5003304;28;45440;-69
2022/03/15 02:10:05;;;;;;;;;8.50;7.75;;;;;11.78;57.14;101723.44;5004806;28;45376;-66
2022/03/15 02:12:36;;;;;;;;;7.75;6.50;;;;;11.75;57.26;101723.59;5005963;28;46165;-73
2022/03/15 02:15:03;;;;;;;;;6.00;4.00;;;;;11.67;57.52;101707.03;4988351;28;45381;-66
2022/03/15 02:17:29;;;;;;;;;8.75;8.75;;;;;11.77;57.76;101721.72;4990241;28;45416;-74
2022/03/15 02:19:55;;;;;;;;;6.75;6.75;;;;;11.64;57.83;101696.53;4989346;28;45392;-69
2022/03/15 02:22:22;;;;;;;;;9.50;7.75;;;;;11.79;58.36;101709.22;5003444;28;45390;-73
2022/03/15 02:24:47;;;;;;;;;11.33;6.00;;;;;11.81;58.37;101712.69;4982002;28;45345;-67
2022/03/15 02:27:12;;;;;;;;;7.25;6.25;;;;;11.80;58.87;101705.63;5020493;28;45553;-70
2022/03/15 02:29:38;;;;;;;;;4.50;4.50;;;;;11.73;59.33;101687.28;4986067;28;45356;-69
2022/03/15 02:32:04;;;;;;;;;7.75;6.00;;;;;11.76;59.08;101692.47;5022733;28;45671;-65
2022/03/15 02:34:29;;;;;;;;;7.00;4.00;;;;;11.63;59.58;101665.50;5007287;28;45443;-71
2022/03/15 02:36:55;;;;;;;;;7.25;6.75;;;;;11.75;59.18;101683.63;5011609;28;45357;-68
2022/03/15 02:39:21;;;;;;;;;10.75;6.50;;;;;11.75;60.03;101672.94;5010265;28;45259;-68
2022/03/15 02:41:46;;;;;;;;;7.00;6.00;;;;;11.74;60.73;101681.00;5009598;28;45455;-71
2022/03/15 02:44:12;;;;;;;;;6.00;6.00;;;;;11.79;60.32;101684.38;5009773;28;45324;-74
2022/03/15 02:46:39;;;;;;;;;7.00;5.33;;;;;11.72;60.66;101669.56;5013639;28;45824;-75
2022/03/15 02:49:06;;;;;;;;;6.00;6.00;;;;;11.78;60.51;101683.47;5003683;28;45436;-73
2022/03/15 02:51:31;;;;;;;;;11.33;7.33;;;;;11.77;60.59;101676.41;5003060;28;45229;-73
2022/03/15 02:53:57;;;;;;;;;7.00;6.00;;;;;11.70;61.35;101666.94;5011486;28;45623;-66
2022/03/15 02:56:23;;;;;;;;;6.00;6.00;;;;;11.71;61.50;101678.47;5006594;28;45820;-66
2022/03/15 02:58:49;;;;;;;;;4.00;4.00;;;;;11.73;61.89;101681.94;4983028;28;45927;-69
2022/03/15 03:01:14;;;;;;;;;7.00;7.00;;;;;11.73;61.81;101677.47;5000300;28;47530;-69
2022/03/15 03:03:40;;;;;;;;;8.25;8.25;;;;;11.71;61.84;101658.00;5006466;28;45518;-72
2022/03/15 03:06:05;;;;;;;;;9.00;7.50;;;;;11.71;62.55;101663.34;5006528;28;45360;-67
2022/03/15 03:08:32;;;;;;;;;7.00;7.00;;;;;11.70;62.24;101656.28;4998566;28;44888;-68
2022/03/15 03:10:58;;;;;;;;;4.50;4.50;;;;;11.72;62.76;101665.09;5010294;28;46354;-68
2022/03/15 03:13:27;;;;;;;;;7.00;7.00;;;;;11.64;63.74;101651.22;4986969;28;45559;-66
2022/03/15 03:15:58;;;;;;;;;5.50;4.50;;;;;11.72;63.79;101657.09;5008009;28;45294;-68
2022/03/15 03:18:32;;;;;;;;;7.00;7.00;;;;;11.70;64.13;101660.75;5010857;28;45524;-70
2022/03/15 03:20:58;;;;;;;;;10.00;8.25;;;;;11.61;64.47;101645.19;5010875;28;45578;-65
2022/03/15 03:23:24;;;;;;;;;13.67;6.33;;;;;11.64;65.37;101655.69;5007352;28;45349;-69
2022/03/15 03:25:49;;;;;;;;;8.00;7.33;;;;;11.58;65.39;101650.63;5007127;28;45191;-64
2022/03/15 03:28:16;;;;;;;;;9.00;7.33;;;;;11.57;65.89;101644.41;4989389;28;45354;-62
2022/03/15 03:30:46;;;;;;;;;8.75;7.00;;;;;11.61;66.38;101656.69;5004990;28;46032;-72
2022/03/15 03:33:12;;;;;;;;;13.50;7.25;;;;;11.61;66.46;101651.38;5010457;28;45641;-64
2022/03/15 03:35:38;;;;;;;;;9.25;8.50;;;;;11.67;66.25;101656.41;5012891;28;45349;-68
2022/03/15 03:38:05;;;;;;;;;7.25;6.50;;;;;11.69;66.86;101649.22;5023213;28;45399;-66
2022/03/15 03:40:31;;;;;;;;;6.25;6.25;;;;;11.63;66.87;101649.50;5009937;28;45388;-66
2022/03/15 03:42:57;;;;;;;;;8.00;8.00;;;;;11.65;67.55;101660.09;5004652;28;45253;-68
2022/03/15 03:45:23;;;;;;;;;11.33;11.00;;;;;11.57;68.27;101649.75;5003529;28;45358;-66
2022/03/15 03:47:48;;;;;;;;;9.50;8.25;;;;;11.51;68.14;101636.72;4986425;28;46928;-65
2022/03/15 03:50:17;;;;;;;;;10.00;8.25;;;;;11.51;68.55;101650.03;5003485;28;45472;-69
2022/03/15 03:52:42;;;;;;;;;9.00;4.50;;;;;11.46;68.83;101636.06;5006991;28;45333;-71
2022/03/15 03:55:08;;;;;;;;;6.75;6.75;;;;;11.50;69.51;101641.16;5004749;28;45468;-77
2022/03/15 03:57:34;;;;;;;;;8.00;8.00;;;;;11.47;69.30;101651.09;4989221;28;45619;-71
2022/03/15 03:59:59;;;;;;;;;5.75;5.75;;;;;11.47;70.06;101640.44;5003439;28;46133;-64
2022/03/15 04:02:26;;;;;;;;;8.25;8.25;;;;;11.42;71.02;101637.09;5007496;28;45175;-71
2022/03/15 04:04:55;;;;;;;;;10.50;10.50;;;;;11.37;70.65;101636.44;5002244;28;45444;-72
2022/03/15 04:07:21;;;;;;;;;12.25;8.25;;;;;11.31;71.14;101631.34;5001019;28;45561;-68
2022/03/15 04:09:46;;;;;;;;;9.00;7.25;;;;;11.30;71.63;101625.16;5019662;28;45395;-60
2022/03/15 04:12:12;;;;;;;;;12.25;11.00;;;;;11.33;72.24;101641.03;5002297;28;45425;-65
2022/03/15 04:14:37;;;;;;;;;9.75;9.25;;;;;11.23;71.95;101619.25;4999985;28;45310;-67
2022/03/15 04:17:04;;;;;;;;;7.50;7.50;;;;;11.30;72.81;101632.28;5002254;28;45362;-67
2022/03/15 04:19:30;;;;;;;;;11.00;8.50;;;;;11.25;73.21;101628.97;5013267;28;45242;-74
2022/03/15 04:21:55;;;;;;;;;16.50;12.00;;;;;11.25;73.60;101627.16;5024484;28;45429;-72
2022/03/15 04:24:21;;;;;;;;;9.75;8.50;;;;;11.19;73.83;101617.63;5007154;28;45549;-78
2022/03/15 04:26:47;;;;;;;;;13.00;8.75;;;;;11.26;74.06;101622.72;5010183;28;45441;-72
2022/03/15 04:29:13;;;;;;;;;13.50;13.50;;;;;11.20;73.68;101613.19;4996758;28;45720;-74
2022/03/15 04:31:39;;;;;;;;;9.75;3.00;;;;;11.31;73.64;101631.34;5015111;28;44782;-62
2022/03/15 04:34:05;;;;;;;;;12.50;11.00;;;;;11.31;74.26;101634.88;5014823;28;45496;-70
2022/03/15 04:36:30;;;;;;;;;11.25;11.25;;;;;11.28;74.30;101623.50;5025121;28;45368;-77
2022/03/15 04:38:56;;;;;;;;;12.00;9.25;;;;;11.31;73.57;101615.38;5022716;28;45544;-77
2022/03/15 04:41:22;;;;;;;;;9.00;8.75;;;;;11.31;74.27;101610.06;5002564;28;45346;-68
2022/03/15 04:43:47;;;;;;;;;9.25;7.75;;;;;11.29;78.45;101619.91;4988042;28;45269;-66
2022/03/15 04:46:14;;;;;;;;;9.25;9.25;;;;;11.29;78.16;101622.56;4986166;28;45427;-79
2022/03/15 04:48:42;;;;;;;;;10.75;10.75;;;;;11.27;78.14;101606.66;4999786;28;45353;-70
2022/03/15 04:51:08;;;;;;;;;6.00;6.00;;;;;11.23;76.67;101605.94;4989049;28;45652;-76
2022/03/15 04:53:35;;;;;;;;;8.00;8.00;;;;;11.13;75.00;101588.63;5002393;28;45450;-62
2022/03/15 04:56:00;;;;;;;;;12.00;11.00;;;;;11.31;75.08;101613.59;5004460;28;45423;-72
2022/03/15 04:58:26;;;;;;;;;8.00;8.00;;;;;11.35;75.43;101609.00;4991866;28;46581;-72
2022/03/15 05:00:52;;;;;;;;;11.25;9.50;;;;;11.27;74.83;101592.47;5008112;28;45412;-74
2022/03/15 05:03:17;;;;;;;;;10.50;10.50;;;;;11.36;75.01;101618.72;5002128;28;45764;-76
2022/03/15 05:05:45;;;;;;;;;9.75;9.75;;;;;11.34;75.66;101609.94;5000023;28;45269;-73
2022/03/15 05:08:12;;;;;;;;;10.75;8.00;;;;;11.22;76.33;101596.22;4998809;28;45228;-74
2022/03/15 05:13:21;;;;;;;;;12.00;9.25;;;;;11.30;74.81;101613.66;5015957;28;45534;-66
2022/03/15 05:15:48;;;;;;;;;11.75;9.25;;;;;11.26;75.67;101601.41;5012756;28;45168;-71
2022/03/15 05:18:13;;;;;;;;;9.25;8.00;;;;;11.17;75.81;101582.22;5003418;28;46403;-68
2022/03/15 05:20:39;;;;;;;;;9.75;9.75;;;;;11.31;75.57;101604.72;4991600;28;45495;-81
2022/03/15 05:23:04;;;;;;;;;14.50;10.00;;;;;11.29;76.03;101593.28;5007576;28;45455;-69
2022/03/15 05:25:30;;;;;;;;;9.25;9.25;;;;;11.22;75.96;101592.69;5004267;28;45456;-79
2022/03/15 05:27:55;;;;;;;;;7.00;7.00;;;;;11.30;75.90;101597.66;5005498;28;45648;-69
2022/03/15 05:30:21;;;;;;;;;14.00;7.50;;;;;11.32;75.57;101601.13;5002215;28;45270;-79
2022/03/15 05:32:47;;;;;;;;;6.50;6.50;;;;;11.28;75.73;101597.75;5002185;28;45349;-68
2022/03/15 05:35:12;;;;;;;;;8.00;8.00;;;;;11.26;76.12;101590.75;4988953;28;45322;-65
2022/03/15 05:37:38;;;;;;;;;12.25;8.50;;;;;11.22;76.01;101587.38;5011452;28;46788;-66
2022/03/15 05:40:04;;;;;;;;;7.00;7.00;;;;;11.27;76.42;101603.13;5027874;28;45243;-76
2022/03/15 05:42:29;;;;;;;;;8.50;8.50;;;;;11.32;76.46;101612.66;5011949;28;44712;-78
2022/03/15 05:44:55;;;;;;;;;15.50;11.75;;;;;11.22;76.88;101601.53;4990270;28;45625;-75
2022/03/15 05:47:20;;;;;;;;;8.00;8.00;;;;;11.27;76.91;101605.81;5007968;28;45271;-73
2022/03/15 05:49:46;;;;;;;;;8.75;8.75;;;;;11.26;77.21;101602.28;5008184;28;45229;-68
2022/03/15 05:52:11;;;;;;;;;13.75;11.75;;;;;11.22;76.84;101606.00;5004664;28;45847;-69
2022/03/15 05:54:36;;;;;;;;;12.50;12.25;;;;;11.29;77.53;101617.25;5009842;28;45503;-68
2022/03/15 05:57:02;;;;;;;;;9.75;9.75;;;;;11.22;77.37;101612.19;5005841;28;45454;-71
2022/03/15 05:59:28;;;;;;;;;10.50;9.50;;;;;11.28;76.93;101620.84;4982996;28;45449;-72
2022/03/15 06:01:54;;;;;;;;;12.75;11.00;;;;;11.26;77.16;101609.41;5003155;28;45353;-72
2022/03/15 06:04:24;;;;;;;;;7.00;7.00;;;;;11.27;77.58;101612.00;5005892;28;45582;-79
2022/03/15 06:06:49;;;;;;;;;12.50;11.00;;;;;11.33;77.32;101624.16;5013392;28;47341;-65
2022/03/15 06:09:15;;;;;;;;;11.50;11.50;;;;;11.33;76.86;101614.41;5003071;28;45234;-64
2022/03/15 06:11:40;;;;;;;;;10.50;9.00;;;;;11.33;78.30;101613.50;4987923;28;45440;-68
2022/03/15 06:14:06;;;;;;;;;10.75;9.75;;;;;11.37;77.64;101623.13;4997434;28;45353;-71
2022/03/15 06:16:31;;;;;;;;;9.75;8.00;;;;;11.39;77.78;101622.13;4997050;28;45407;-69
2022/03/15 06:18:57;;;;;;;;;8.50;8.50;;;;;11.28;78.04;101604.88;4978525;28;45291;-63
2022/03/15 06:21:26;;;;;;;;;12.00;8.50;;;;;11.39;77.54;101622.13;4999230;28;45486;-65
2022/03/15 06:23:52;;;;;;;;;11.50;11.50;;;;;11.45;77.83;101628.97;5012015;28;45551;-61
2022/03/15 06:26:20;;;;;;;;;11.00;11.00;;;;;11.19;76.90;101587.47;5016172;28;45521;-69
2022/03/15 06:28:45;;;;;;;;;8.00;8.00;;;;;11.22;77.31;101590.03;5026220;28;45296;-69
2022/03/15 06:31:13;;;;;;;;;9.50;8.00;;;;;11.45;77.15;101618.31;5002253;28;45323;-66
2022/03/15 06:33:39;;;;;;;;;17.25;12.75;;;;;11.41;77.50;101604.28;4988900;28;45731;-63
2022/03/15 06:36:11;;;;;;;;;17.25;13.00;;;;;11.18;77.16;101573.28;5004711;28;46090;-69
2022/03/15 06:38:40;;;;;;;;;16.25;12.50;;;;;11.38;77.76;101612.41;5001666;28;45401;-68
2022/03/15 06:41:07;;;;;;;;;3.50;2.00;;;;;11.28;78.84;101589.75;5000798;28;45693;-65
2022/03/15 06:43:34;;;;;;;;;17.75;13.50;;;;;11.47;80.41;101620.00;4996432;28;45428;-71
2022/03/15 06:45:59;;;;;;;;;13.75;13.50;;;;;11.50;81.02;101621.66;4992552;28;46220;-66
2022/03/15 06:48:25;;;;;;;;;12.75;12.75;;;;;11.46;79.05;101612.09;4987692;28;45365;-68
2022/03/15 06:50:50;;;;;;;;;13.75;12.75;;;;;11.58;78.81;101626.63;4998820;28;45405;-63
2022/03/15 06:53:16;;;;;;;;;17.00;14.25;;;;;11.56;78.83;101620.50;4984484;28;45404;-67
2022/03/15 06:55:41;;;;;;;;;18.25;17.50;;;;;11.49;79.63;101610.16;4991550;28;45340;-63
2022/03/15 06:58:06;;;;;;;;;22.50;17.50;;;;;11.58;80.60;101629.31;4993281;28;45279;-62
2022/03/15 07:00:32;;;;;;;;;25.75;17.50;;;;;11.57;79.60;101615.13;4988955;28;45297;-63
2022/03/15 07:02:57;;;;;;;;;19.50;17.25;;;;;11.63;78.83;101612.19;5004333;28;45835;-71
2022/03/15 07:05:23;;;;;;;;;18.00;17.50;;;;;11.63;78.98;101601.53;5014682;28;46169;-67
2022/03/15 07:07:48;;;;;;;;;18.75;17.75;;;;;11.67;78.17;101607.59;5014368;28;46202;-65
2022/03/15 07:10:17;;;;;;;;;19.25;18.75;;;;;11.62;78.69;101599.81;5020217;28;45666;-59
2022/03/15 07:12:43;;;;;;;;;17.75;17.00;;;;;11.61;78.65;101597.22;5027819;28;45423;-76
2022/03/15 07:15:10;;;;;;;;;19.50;14.00;;;;;11.61;78.68;101603.41;4996106;28;46819;-68
2022/03/15 07:17:36;;;;;;;;;21.25;17.25;;;;;11.64;78.97;101605.94;5013668;28;45172;-68
2022/03/15 07:20:02;;;;;;;;;18.75;18.75;;;;;11.72;78.07;101616.25;5007313;28;45399;-62
2022/03/15 07:22:28;;;;;;;;;15.50;15.50;;;;;11.70;78.11;101612.78;5005749;28;45530;-66
2022/03/15 07:24:53;;;;;;;;;20.25;16.75;;;;;11.71;77.68;101619.84;4996967;28;46544;-63
2022/03/15 07:27:20;;;;;;;;;24.00;21.00;;;;;11.73;77.79;101628.66;5003490;28;45439;-62
2022/03/15 07:29:45;;;;;;;;;28.25;23.00;;;;;11.72;77.83;101617.13;5002802;28;45571;-62
2022/03/15 07:32:11;;;;;;;;;27.75;24.00;;;;;11.73;77.84;101618.84;4985009;28;45700;-66
2022/03/15 07:34:37;;;;;;;;;22.25;20.50;;;;;11.73;78.14;101623.31;4993195;28;46690;-63
2022/03/15 07:37:03;;;;;;;;;18.50;18.50;;;;;11.74;78.20;101622.38;5016402;28;45894;-65
2022/03/15 07:39:28;;;;;;;;;22.25;18.25;;;;;11.69;77.28;101625.22;5005601;28;45474;-65
2022/03/15 07:41:54;;;;;;;;;24.50;21.00;;;;;11.73;78.26;101618.84;5001953;28;45859;-64
2022/03/15 07:44:20;;;;;;;;;25.50;24.00;;;;;11.80;78.28;101624.78;5003093;28;45403;-62
2022/03/15 07:46:49;;;;;;;;;21.50;21.50;;;;;11.83;78.42;101624.66;4985577;28;45393;-64
2022/03/15 07:49:16;;;;;;;;;24.25;22.00;;;;;11.73;78.49;101602.88;5000888;28;45357;-65
2022/03/15 07:51:42;;;;;;;;;23.25;21.00;;;;;11.79;78.39;101612.41;5000706;28;45538;-65
2022/03/15 07:54:07;;;;;;;;;24.00;21.00;;;;;11.74;78.85;101604.59;5001450;28;46415;-63
2022/03/15 07:56:33;;;;;;;;;28.25;22.75;;;;;11.66;79.62;101585.41;5004340;28;46628;-61
2022/03/15 07:59:02;;;;;;;;;21.00;18.75;;;;;11.78;79.69;101600.84;5002844;28;45335;-63
2022/03/15 08:01:28;;;;;;;;;29.75;23.75;;;;;11.73;79.34;101591.34;5018114;28;45646;-61
2022/03/15 08:03:53;;;;;;;;;25.00;22.50;;;;;11.80;78.71;101599.00;5003823;28;46551;-62
2022/03/15 08:06:19;;;;;;;;;27.50;25.00;;;;;11.84;78.42;101606.84;5009863;28;45335;-63
2022/03/15 08:08:44;;;;;;;;;23.75;21.00;;;;;11.80;78.70;101592.81;5006262;28;45421;-62
2022/03/15 08:11:09;;;;;;;;;22.00;20.25;;;;;11.87;78.78;101606.75;5008365;28;45254;-62
2022/03/15 08:13:35;;;;;;;;;23.50;22.25;;;;;11.84;78.52;101594.41;5007873;28;48164;-62
2022/03/15 08:16:05;;;;;;;;;27.75;26.00;;;;;11.86;78.32;101599.69;5012991;28;45151;-63
2022/03/15 08:18:31;;;;;;;;;26.00;26.00;;;;;11.86;78.32;101597.03;5006856;28;45483;-63
2022/03/15 08:20:59;;;;;;;;;24.25;22.00;;;;;11.89;77.90;101604.88;4988070;28;45444;-61
2022/03/15 08:23:27;;;;;;;;;24.75;21.75;;;;;11.87;77.81;101601.41;5005510;28;47273;-60
2022/03/15 08:25:55;;;;;;;;;23.00;21.75;;;;;11.80;77.82;101593.69;5004812;28;45420;-61
2022/03/15 08:28:22;;;;;;;;;25.25;25.25;;;;;11.82;78.11;101597.13;4999252;28;45267;-63
2022/03/15 08:30:48;;;;;;;;;26.75;26.00;;;;;11.82;78.11;101591.81;5005122;28;45578;-61
2022/03/15 08:33:13;;;;;;;;;30.75;25.50;;;;;11.85;78.46;101604.16;4983334;28;46845;-62
2022/03/15 08:35:39;;;;;;;;;32.75;25.75;;;;;11.86;78.26;101607.69;5002995;28;45403;-65
2022/03/15 08:38:04;;;;;;;;;31.50;28.25;;;;;11.70;78.70;101592.31;5008657;28;45407;-65
2022/03/15 08:40:30;;;;;;;;;28.50;26.00;;;;;11.81;78.49;101611.41;5011917;28;45309;-64
2022/03/15 08:42:55;;;;;;;;;27.50;25.00;;;;;11.71;77.91;101610.03;5010564;28;46158;-65
2022/03/15 08:45:20;;;;;;;;;29.25;27.25;;;;;11.73;78.64;101612.66;5008328;28;45384;-61
2022/03/15 08:47:46;;;;;;;;;25.25;20.25;;;;;11.70;78.03;101618.97;5006758;28;45302;-63
2022/03/15 08:50:12;;;;;;;;;23.25;21.75;;;;;11.63;78.02;101603.34;4988208;28;45531;-69
2022/03/15 08:52:37;;;;;;;;;32.50;28.50;;;;;11.71;77.89;101615.38;5003529;28;45634;-65
2022/03/15 08:55:03;;;;;;;;;24.25;23.25;;;;;11.72;78.15;101624.25;4985185;28;45358;-63
2022/03/15 08:57:29;;;;;;;;;27.00;25.25;;;;;11.71;77.80;101631.34;5006240;28;45414;-63
2022/03/15 08:59:55;;;;;;;;;26.00;25.50;;;;;11.75;78.02;101632.97;5008845;28;45271;-69
2022/03/15 09:02:21;;;;;;;;;24.50;24.25;;;;;11.72;77.85;101618.94;5008057;28;45085;-70
2022/03/15 09:04:47;;;;;;;;;25.25;22.50;;;;;11.62;77.59;101610.47;5008297;28;45334;-65
2022/03/15 09:07:13;;;;;;;;;31.75;25.00;;;;;11.68;78.12;101617.31;5007029;28;45390;-70
2022/03/15 09:09:39;;;;;;;;;26.75;24.25;;;;;11.68;78.04;101626.16;5005371;28;45526;-65
2022/03/15 09:12:05;;;;;;;;;29.50;26.50;;;;;11.72;78.50;101649.09;5003803;28;46076;-66
2022/03/15 09:14:31;;;;;;;;;25.00;24.50;;;;;11.73;78.46;101650.84;4985154;28;45341;-68
2022/03/15 09:16:57;;;;;;;;;26.00;24.00;;;;;11.60;78.81;101612.34;5001761;28;45435;-67
2022/03/15 09:19:23;;;;;;;;;33.75;26.00;;;;;11.75;78.67;101635.63;4985521;28;45525;-65
2022/03/15 09:21:49;;;;;;;;;25.75;23.25;;;;;11.70;78.89;101624.28;5000856;28;46101;-65
2022/03/15 09:24:14;;;;;;;;;25.75;23.50;;;;;11.75;78.44;101627.66;4986128;28;45332;-65
2022/03/15 09:26:42;;;;;;;;;27.50;24.25;;;;;11.78;78.64;101643.50;5005361;28;45449;-64
2022/03/15 09:29:12;;;;;;;;;35.50;26.00;;;;;11.79;78.94;101634.59;5005671;28;45318;-65
2022/03/15 09:31:38;;;;;;;;;29.50;26.25;;;;;11.78;79.03;101632.84;5002802;28;45069;-67
2022/03/15 09:34:04;;;;;;;;;30.75;28.00;;;;;11.78;79.34;101632.84;5004553;28;45231;-67
2022/03/15 09:36:30;;;;;;;;;29.50;21.00;;;;;11.78;79.29;101619.50;4985198;28;45310;-69
2022/03/15 09:38:56;;;;;;;;;31.25;25.25;;;;;11.90;79.04;101633.25;5004275;28;45230;-71
2022/03/15 09:41:25;;;;;;;;;29.50;24.00;;;;;11.93;79.25;101625.13;5005855;28;45736;-62
2022/03/15 09:43:53;;;;;;;;;46.75;36.50;;;;;11.94;78.52;101621.50;5003065;28;45445;-65
2022/03/15 09:46:21;;;;;;;;;35.50;26.25;;;;;11.93;78.31;101615.31;5003936;28;45303;-66
2022/03/15 09:48:52;;;;;;;;;28.75;27.75;;;;;11.98;78.53;101612.44;5003834;28;45428;-67
2022/03/15 09:51:18;;;;;;;;;35.50;33.50;;;;;11.95;78.59;101601.91;4998106;28;46247;-62
2022/03/15 09:53:45;;;;;;;;;28.75;28.00;;;;;12.07;78.42;101612.00;5001806;28;44727;-68
2022/03/15 09:56:14;;;;;;;;;38.25;29.25;;;;;12.04;78.68;101604.16;5006833;28;45617;-70
2022/03/15 09:58:40;;;;;;;;;28.00;27.00;;;;;12.03;78.62;101595.31;5007235;28;45800;-66
2022/03/15 10:01:05;;;;;;;;;34.50;30.00;;;;;12.03;77.92;101583.78;5004502;28;46261;-65
2022/03/15 10:03:31;;;;;;;;;34.50;32.25;;;;;12.07;78.49;101591.56;5007663;28;45368;-64
2022/03/15 10:05:56;;;;;;;;;31.25;30.50;;;;;12.08;78.59;101592.41;5007944;28;45345;-62
2022/03/15 10:08:22;;;;;;;;;42.00;37.50;;;;;12.13;78.57;101593.09;5000896;28;45338;-63
2022/03/15 10:10:50;;;;;;;;;29.00;29.00;;;;;12.20;78.19;101598.97;4981656;28;45509;-64
2022/03/15 10:13:15;;;;;;;;;29.50;27.25;;;;;12.16;78.17;101603.59;4981947;28;45252;-67
2022/03/15 10:15:51;;;;;;;;;37.75;30.25;;;;;12.07;77.82;101596.00;4996982;28;45263;-68
2022/03/15 10:18:18;;;;;;;;;32.50;29.25;;;;;12.07;77.73;101586.22;5007642;28;45638;-66
2022/03/15 10:20:43;;;;;;;;;32.25;26.50;;;;;12.14;78.23;101596.63;5009094;28;47135;-63
2022/03/15 10:23:10;;;;;;;;;30.75;29.25;;;;;12.13;78.20;101601.09;5012520;28;45376;-69
2022/03/15 10:25:36;;;;;;;;;29.00;26.75;;;;;12.03;78.42;101578.44;5007923;28;45768;-68
2022/03/15 10:28:05;;;;;;;;;35.50;28.25;;;;;12.13;77.88;101589.56;5006310;28;45262;-70
2022/03/15 10:30:31;;;;;;;;;33.25;27.50;;;;;12.17;77.75;101602.66;5007772;28;46114;-64
2022/03/15 10:32:57;;;;;;;;;29.75;27.75;;;;;12.17;77.57;101602.66;4989715;28;45388;-70
2022/03/15 10:35:28;;;;;;;;;32.25;31.75;;;;;12.15;77.17;101601.00;5003117;28;45174;-67
2022/03/15 10:37:54;;;;;;;;;27.25;27.25;;;;;12.13;77.42;101590.41;5003302;28;45347;-61
2022/03/15 10:40:37;;;;;;;;;31.00;30.25;;;;;12.18;77.85;101591.06;4986093;28;46730;-67
2022/03/15 10:43:05;;;;;;;;;39.00;28.25;;;;;12.09;77.20;101567.47;5012893;28;44875;-63
2022/03/15 10:45:31;;;;;;;;;36.50;27.00;;;;;12.16;77.46;101576.06;5003519;28;45259;-63
2022/03/15 10:47:56;;;;;;;;;36.00;30.00;;;;;12.13;77.24;101574.41;5002362;28;45321;-61
2022/03/15 10:50:23;;;;;;;;;33.75;31.75;;;;;12.05;77.47;101565.91;5008639;28;46501;-64
2022/03/15 10:52:50;;;;;;;;;36.00;35.75;;;;;12.21;77.54;101580.25;5011918;28;45330;-66
2022/03/15 10:55:27;;;;;;;;;29.50;27.00;;;;;12.24;77.80;101577.44;4995756;28;45301;-68
2022/03/15 10:57:58;;;;;;;;;42.25;37.50;;;;;12.29;77.58;101574.56;5012035;28;45254;-69
2022/03/15 11:00:27;;;;;;;;;35.75;34.50;;;;;12.30;77.93;101570.94;5012546;28;46160;-65
2022/03/15 11:02:54;;;;;;;;;36.00;34.50;;;;;12.23;76.70;101586.34;5017256;28;44798;-66
2022/03/15 11:05:29;;;;;;;;;42.50;34.00;;;;;12.16;77.92;101589.41;5019188;28;45677;-68
2022/03/15 11:07:55;;;;;;;;;37.00;35.00;;;;;12.10;77.97;101585.19;5018920;28;45310;-61
2022/03/15 11:10:21;;;;;;;;;37.50;34.50;;;;;12.09;77.97;101586.13;5018303;28;45380;-62
2022/03/15 11:13:08;;;;;;;;;38.00;34.50;;;;;12.01;78.48;101575.00;5001871;28;44793;-65
2022/03/15 11:15:39;;;;;;;;;39.50;35.75;;;;;12.06;78.61;101570.28;5001933;28;44929;-66